sensor_id;sensor_type;location;lat;lon;timestamp;P1;durP1;ratioP1;P2;durP2;ratioP2
13439;SDS011;6792;57.698;11.946;2023-06-05T00:00:16;1.92;;;1.10;;
13439;SDS011;6792;57.698;11.946;2023-06-05T00:02:46;3.67;;;1.05;;
13439;SDS011;6792;57.698;11.946;2023-06-05T00:05:18;2.08;;;1.20;;
13439;SDS011;6792;57.698;11.946;2023-06-05T00:07:47;1.47;;;1.30;;
13439;SDS011;6792;57.698;11.946;2023-06-05T00:10:16;1.70;;;1.30;;
13439;SDS011;6792;57.698;11.946;2023-06-05T00:12:46;3.45;;;1.12;;
13439;SDS011;6792;57.698;11.946;2023-06-05T00:15:17;2.15;;;1.35;;
13439;SDS011;6792;57.698;11.946;2023-06-05T00:17:46;1.50;;;1.40;;
13439;SDS011;6792;57.698;11.946;2023-06-05T00:20:15;2.33;;;1.50;;
13439;SDS011;6792;57.698;11.946;2023-06-05T00:22:45;2.08;;;1.22;;
13439;SDS011;6792;57.698;11.946;2023-06-05T00:25:16;6.83;;;1.60;;
13439;SDS011;6792;57.698;11.946;2023-06-05T00:27:49;3.25;;;1.37;;
13439;SDS011;6792;57.698;11.946;2023-06-05T00:30:18;1.92;;;1.10;;
13439;SDS011;6792;57.698;11.946;2023-06-05T00:32:47;1.02;;;1.00;;
13439;SDS011;6792;57.698;11.946;2023-06-05T00:35:16;3.00;;;1.55;;
13439;SDS011;6792;57.698;11.946;2023-06-05T00:37:48;1.37;;;1.10;;
13439;SDS011;6792;57.698;11.946;2023-06-05T00:40:18;1.30;;;1.20;;
13439;SDS011;6792;57.698;11.946;2023-06-05T00:42:47;3.75;;;1.30;;
13439;SDS011;6792;57.698;11.946;2023-06-05T00:45:17;4.60;;;1.30;;
13439;SDS011;6792;57.698;11.946;2023-06-05T00:47:46;2.22;;;1.50;;
13439;SDS011;6792;57.698;11.946;2023-06-05T00:50:18;1.45;;;1.20;;
13439;SDS011;6792;57.698;11.946;2023-06-05T00:52:48;1.87;;;1.30;;
13439;SDS011;6792;57.698;11.946;2023-06-05T00:55:18;1.92;;;1.27;;
13439;SDS011;6792;57.698;11.946;2023-06-05T00:57:48;2.33;;;1.47;;
13439;SDS011;6792;57.698;11.946;2023-06-05T01:00:18;1.35;;;1.25;;
13439;SDS011;6792;57.698;11.946;2023-06-05T01:02:47;3.25;;;1.52;;
13439;SDS011;6792;57.698;11.946;2023-06-05T01:05:19;1.37;;;1.27;;
13439;SDS011;6792;57.698;11.946;2023-06-05T01:07:48;1.40;;;1.10;;
13439;SDS011;6792;57.698;11.946;2023-06-05T01:10:17;1.65;;;1.20;;
13439;SDS011;6792;57.698;11.946;2023-06-05T01:12:49;1.40;;;1.30;;
13439;SDS011;6792;57.698;11.946;2023-06-05T01:15:20;2.12;;;1.50;;
13439;SDS011;6792;57.698;11.946;2023-06-05T01:17:52;3.22;;;1.25;;
13439;SDS011;6792;57.698;11.946;2023-06-05T01:20:22;2.77;;;1.60;;
13439;SDS011;6792;57.698;11.946;2023-06-05T01:22:51;1.67;;;1.57;;
13439;SDS011;6792;57.698;11.946;2023-06-05T01:25:20;2.02;;;1.57;;
13439;SDS011;6792;57.698;11.946;2023-06-05T01:27:52;2.08;;;1.52;;
13439;SDS011;6792;57.698;11.946;2023-06-05T01:30:23;1.98;;;1.55;;
13439;SDS011;6792;57.698;11.946;2023-06-05T01:32:56;1.55;;;1.45;;
13439;SDS011;6792;57.698;11.946;2023-06-05T01:35:29;2.25;;;1.55;;
13439;SDS011;6792;57.698;11.946;2023-06-05T01:38:00;1.85;;;1.50;;
13439;SDS011;6792;57.698;11.946;2023-06-05T01:40:33;1.42;;;1.30;;
13439;SDS011;6792;57.698;11.946;2023-06-05T01:43:04;2.47;;;1.80;;
13439;SDS011;6792;57.698;11.946;2023-06-05T01:45:36;2.50;;;1.70;;
13439;SDS011;6792;57.698;11.946;2023-06-05T01:48:07;2.65;;;1.82;;
13439;SDS011;6792;57.698;11.946;2023-06-05T01:50:37;2.27;;;1.40;;
13439;SDS011;6792;57.698;11.946;2023-06-05T01:53:08;1.52;;;1.42;;
13439;SDS011;6792;57.698;11.946;2023-06-05T01:55:38;1.62;;;1.52;;
13439;SDS011;6792;57.698;11.946;2023-06-05T01:58:07;3.10;;;1.60;;
13439;SDS011;6792;57.698;11.946;2023-06-05T02:00:37;2.27;;;1.57;;
13439;SDS011;6792;57.698;11.946;2023-06-05T02:03:06;2.02;;;1.45;;
13439;SDS011;6792;57.698;11.946;2023-06-05T02:05:36;1.87;;;1.67;;
13439;SDS011;6792;57.698;11.946;2023-06-05T02:08:05;2.80;;;1.80;;
13439;SDS011;6792;57.698;11.946;2023-06-05T02:10:35;2.58;;;1.80;;
13439;SDS011;6792;57.698;11.946;2023-06-05T02:13:06;3.40;;;1.47;;
13439;SDS011;6792;57.698;11.946;2023-06-05T02:15:35;1.72;;;1.52;;
13439;SDS011;6792;57.698;11.946;2023-06-05T02:18:04;1.95;;;1.50;;
13439;SDS011;6792;57.698;11.946;2023-06-05T02:20:34;2.02;;;1.80;;
13439;SDS011;6792;57.698;11.946;2023-06-05T02:23:03;2.42;;;1.80;;
13439;SDS011;6792;57.698;11.946;2023-06-05T02:25:33;1.90;;;1.70;;
13439;SDS011;6792;57.698;11.946;2023-06-05T02:28:02;1.85;;;1.70;;
13439;SDS011;6792;57.698;11.946;2023-06-05T02:30:31;1.92;;;1.72;;
13439;SDS011;6792;57.698;11.946;2023-06-05T02:33:00;2.02;;;1.57;;
13439;SDS011;6792;57.698;11.946;2023-06-05T02:35:30;4.62;;;1.60;;
13439;SDS011;6792;57.698;11.946;2023-06-05T02:37:59;7.35;;;1.65;;
13439;SDS011;6792;57.698;11.946;2023-06-05T02:40:28;2.30;;;1.50;;
13439;SDS011;6792;57.698;11.946;2023-06-05T02:42:57;2.83;;;1.72;;
13439;SDS011;6792;57.698;11.946;2023-06-05T02:45:27;2.85;;;1.77;;
13439;SDS011;6792;57.698;11.946;2023-06-05T02:47:57;2.75;;;1.82;;
13439;SDS011;6792;57.698;11.946;2023-06-05T02:50:26;2.85;;;1.67;;
13439;SDS011;6792;57.698;11.946;2023-06-05T02:52:55;3.37;;;1.80;;
13439;SDS011;6792;57.698;11.946;2023-06-05T02:55:24;2.20;;;1.90;;
13439;SDS011;6792;57.698;11.946;2023-06-05T02:57:56;1.98;;;1.77;;
13439;SDS011;6792;57.698;11.946;2023-06-05T03:00:25;1.67;;;1.57;;
13439;SDS011;6792;57.698;11.946;2023-06-05T03:02:54;5.17;;;1.80;;
13439;SDS011;6792;57.698;11.946;2023-06-05T03:05:24;2.95;;;1.60;;
13439;SDS011;6792;57.698;11.946;2023-06-05T03:07:54;3.30;;;1.72;;
13439;SDS011;6792;57.698;11.946;2023-06-05T03:10:23;3.72;;;1.42;;
13439;SDS011;6792;57.698;11.946;2023-06-05T03:12:54;1.57;;;1.47;;
13439;SDS011;6792;57.698;11.946;2023-06-05T03:15:23;2.50;;;2.00;;
13439;SDS011;6792;57.698;11.946;2023-06-05T03:17:54;2.62;;;1.70;;
13439;SDS011;6792;57.698;11.946;2023-06-05T03:20:23;3.17;;;1.62;;
13439;SDS011;6792;57.698;11.946;2023-06-05T03:22:52;4.47;;;1.75;;
13439;SDS011;6792;57.698;11.946;2023-06-05T03:25:23;1.45;;;1.35;;
13439;SDS011;6792;57.698;11.946;2023-06-05T03:27:52;2.80;;;1.92;;
13439;SDS011;6792;57.698;11.946;2023-06-05T03:30:21;3.98;;;2.22;;
13439;SDS011;6792;57.698;11.946;2023-06-05T03:32:50;2.75;;;1.90;;
13439;SDS011;6792;57.698;11.946;2023-06-05T03:35:20;4.83;;;2.10;;
13439;SDS011;6792;57.698;11.946;2023-06-05T03:37:49;5.15;;;2.83;;
13439;SDS011;6792;57.698;11.946;2023-06-05T03:40:19;4.72;;;2.05;;
13439;SDS011;6792;57.698;11.946;2023-06-05T03:42:48;4.72;;;2.65;;
13439;SDS011;6792;57.698;11.946;2023-06-05T03:45:17;4.28;;;2.70;;
13439;SDS011;6792;57.698;11.946;2023-06-05T03:47:47;5.67;;;3.05;;
13439;SDS011;6792;57.698;11.946;2023-06-05T03:50:16;4.70;;;2.83;;
13439;SDS011;6792;57.698;11.946;2023-06-05T03:52:46;5.65;;;3.67;;
13439;SDS011;6792;57.698;11.946;2023-06-05T03:55:18;5.50;;;3.10;;
13439;SDS011;6792;57.698;11.946;2023-06-05T03:57:47;5.70;;;3.25;;
13439;SDS011;6792;57.698;11.946;2023-06-05T04:00:17;4.75;;;3.37;;
13439;SDS011;6792;57.698;11.946;2023-06-05T04:02:47;8.00;;;3.90;;
13439;SDS011;6792;57.698;11.946;2023-06-05T04:05:16;8.00;;;5.15;;
13439;SDS011;6792;57.698;11.946;2023-06-05T04:07:46;11.88;;;6.67;;
13439;SDS011;6792;57.698;11.946;2023-06-05T04:10:15;12.80;;;7.62;;
13439;SDS011;6792;57.698;11.946;2023-06-05T04:12:44;12.07;;;7.47;;
13439;SDS011;6792;57.698;11.946;2023-06-05T04:15:16;11.80;;;7.42;;
13439;SDS011;6792;57.698;11.946;2023-06-05T04:17:46;14.40;;;8.90;;
13439;SDS011;6792;57.698;11.946;2023-06-05T04:20:16;13.62;;;8.35;;
13439;SDS011;6792;57.698;11.946;2023-06-05T04:22:47;13.60;;;8.28;;
13439;SDS011;6792;57.698;11.946;2023-06-05T04:25:17;11.88;;;8.53;;
13439;SDS011;6792;57.698;11.946;2023-06-05T04:27:48;12.18;;;7.97;;
13439;SDS011;6792;57.698;11.946;2023-06-05T04:30:18;13.28;;;7.90;;
13439;SDS011;6792;57.698;11.946;2023-06-05T04:32:47;12.68;;;8.20;;
13439;SDS011;6792;57.698;11.946;2023-06-05T04:35:20;12.53;;;7.80;;
13439;SDS011;6792;57.698;11.946;2023-06-05T04:37:50;11.57;;;8.10;;
13439;SDS011;6792;57.698;11.946;2023-06-05T04:40:19;12.23;;;7.25;;
13439;SDS011;6792;57.698;11.946;2023-06-05T04:42:48;10.65;;;7.78;;
13439;SDS011;6792;57.698;11.946;2023-06-05T04:45:18;11.60;;;7.58;;
13439;SDS011;6792;57.698;11.946;2023-06-05T04:47:48;12.30;;;8.20;;
13439;SDS011;6792;57.698;11.946;2023-06-05T04:50:24;10.23;;;7.65;;
13439;SDS011;6792;57.698;11.946;2023-06-05T04:52:56;9.95;;;7.83;;
13439;SDS011;6792;57.698;11.946;2023-06-05T04:55:25;13.25;;;7.95;;
13439;SDS011;6792;57.698;11.946;2023-06-05T04:57:54;11.28;;;7.80;;
13439;SDS011;6792;57.698;11.946;2023-06-05T05:02:54;10.98;;;7.03;;
13439;SDS011;6792;57.698;11.946;2023-06-05T05:05:23;10.10;;;7.62;;
13439;SDS011;6792;57.698;11.946;2023-06-05T05:07:52;10.55;;;7.90;;
13439;SDS011;6792;57.698;11.946;2023-06-05T05:10:22;9.90;;;7.72;;
13439;SDS011;6792;57.698;11.946;2023-06-05T05:12:51;11.68;;;9.08;;
13439;SDS011;6792;57.698;11.946;2023-06-05T05:15:20;10.98;;;7.83;;
13439;SDS011;6792;57.698;11.946;2023-06-05T05:17:49;12.23;;;8.63;;
13439;SDS011;6792;57.698;11.946;2023-06-05T05:20:19;12.78;;;8.85;;
13439;SDS011;6792;57.698;11.946;2023-06-05T05:22:48;11.65;;;8.43;;
13439;SDS011;6792;57.698;11.946;2023-06-05T05:25:17;9.30;;;7.20;;
13439;SDS011;6792;57.698;11.946;2023-06-05T05:27:47;10.65;;;7.33;;
13439;SDS011;6792;57.698;11.946;2023-06-05T05:30:16;10.70;;;7.72;;
13439;SDS011;6792;57.698;11.946;2023-06-05T05:32:47;9.65;;;7.33;;
13439;SDS011;6792;57.698;11.946;2023-06-05T05:35:16;10.68;;;7.87;;
13439;SDS011;6792;57.698;11.946;2023-06-05T05:37:48;9.90;;;7.08;;
13439;SDS011;6792;57.698;11.946;2023-06-05T05:40:20;10.60;;;7.37;;
13439;SDS011;6792;57.698;11.946;2023-06-05T05:42:49;10.43;;;6.97;;
13439;SDS011;6792;57.698;11.946;2023-06-05T05:45:18;11.05;;;6.42;;
13439;SDS011;6792;57.698;11.946;2023-06-05T05:47:47;10.48;;;7.05;;
13439;SDS011;6792;57.698;11.946;2023-06-05T05:50:17;9.70;;;7.20;;
13439;SDS011;6792;57.698;11.946;2023-06-05T05:52:46;9.80;;;6.47;;
13439;SDS011;6792;57.698;11.946;2023-06-05T05:55:17;10.70;;;7.53;;
13439;SDS011;6792;57.698;11.946;2023-06-05T05:57:47;11.20;;;8.03;;
13439;SDS011;6792;57.698;11.946;2023-06-05T06:00:17;9.93;;;6.92;;
13439;SDS011;6792;57.698;11.946;2023-06-05T06:02:47;9.33;;;7.00;;
13439;SDS011;6792;57.698;11.946;2023-06-05T06:05:17;8.28;;;6.05;;
13439;SDS011;6792;57.698;11.946;2023-06-05T06:07:47;9.33;;;6.45;;
13439;SDS011;6792;57.698;11.946;2023-06-05T06:10:16;8.75;;;5.87;;
13439;SDS011;6792;57.698;11.946;2023-06-05T06:12:46;10.00;;;5.65;;
13439;SDS011;6792;57.698;11.946;2023-06-05T06:15:15;7.92;;;5.37;;
13439;SDS011;6792;57.698;11.946;2023-06-05T06:17:46;6.50;;;5.72;;
13439;SDS011;6792;57.698;11.946;2023-06-05T06:20:17;9.18;;;5.45;;
13439;SDS011;6792;57.698;11.946;2023-06-05T06:22:48;9.98;;;5.47;;
13439;SDS011;6792;57.698;11.946;2023-06-05T06:25:17;8.63;;;5.90;;
13439;SDS011;6792;57.698;11.946;2023-06-05T06:27:47;7.90;;;6.10;;
13439;SDS011;6792;57.698;11.946;2023-06-05T06:30:18;8.78;;;5.95;;
13439;SDS011;6792;57.698;11.946;2023-06-05T06:32:48;9.13;;;7.03;;
13439;SDS011;6792;57.698;11.946;2023-06-05T06:35:17;8.78;;;5.80;;
13439;SDS011;6792;57.698;11.946;2023-06-05T06:37:48;9.80;;;6.05;;
13439;SDS011;6792;57.698;11.946;2023-06-05T06:40:18;11.55;;;6.45;;
13439;SDS011;6792;57.698;11.946;2023-06-05T06:42:48;12.95;;;6.80;;
13439;SDS011;6792;57.698;11.946;2023-06-05T06:45:18;11.53;;;6.47;;
13439;SDS011;6792;57.698;11.946;2023-06-05T06:47:47;11.88;;;6.70;;
13439;SDS011;6792;57.698;11.946;2023-06-05T06:50:16;10.68;;;6.37;;
13439;SDS011;6792;57.698;11.946;2023-06-05T06:52:46;12.40;;;6.70;;
13439;SDS011;6792;57.698;11.946;2023-06-05T06:55:15;11.85;;;6.20;;
13439;SDS011;6792;57.698;11.946;2023-06-05T06:57:44;10.80;;;7.33;;
13439;SDS011;6792;57.698;11.946;2023-06-05T07:00:14;10.58;;;6.55;;
13439;SDS011;6792;57.698;11.946;2023-06-05T07:02:50;10.20;;;7.70;;
13439;SDS011;6792;57.698;11.946;2023-06-05T07:05:20;13.70;;;6.87;;
13439;SDS011;6792;57.698;11.946;2023-06-05T07:07:50;11.12;;;6.72;;
13439;SDS011;6792;57.698;11.946;2023-06-05T07:10:19;11.10;;;7.00;;
13439;SDS011;6792;57.698;11.946;2023-06-05T07:12:48;14.25;;;7.60;;
13439;SDS011;6792;57.698;11.946;2023-06-05T07:15:18;11.75;;;7.03;;
13439;SDS011;6792;57.698;11.946;2023-06-05T07:17:47;11.63;;;7.90;;
13439;SDS011;6792;57.698;11.946;2023-06-05T07:20:16;14.10;;;8.48;;
13439;SDS011;6792;57.698;11.946;2023-06-05T07:22:48;11.53;;;7.50;;
13439;SDS011;6792;57.698;11.946;2023-06-05T07:25:18;11.33;;;8.05;;
13439;SDS011;6792;57.698;11.946;2023-06-05T07:27:48;15.43;;;7.85;;
13439;SDS011;6792;57.698;11.946;2023-06-05T07:30:18;9.78;;;7.37;;
13439;SDS011;6792;57.698;11.946;2023-06-05T07:32:47;15.25;;;6.95;;
13439;SDS011;6792;57.698;11.946;2023-06-05T07:35:16;18.10;;;7.05;;
13439;SDS011;6792;57.698;11.946;2023-06-05T07:37:46;12.95;;;7.15;;
13439;SDS011;6792;57.698;11.946;2023-06-05T07:40:16;12.03;;;6.85;;
13439;SDS011;6792;57.698;11.946;2023-06-05T07:42:47;13.48;;;6.90;;
13439;SDS011;6792;57.698;11.946;2023-06-05T07:45:16;11.95;;;6.55;;
13439;SDS011;6792;57.698;11.946;2023-06-05T07:47:47;12.53;;;6.25;;
13439;SDS011;6792;57.698;11.946;2023-06-05T07:50:16;11.40;;;6.25;;
13439;SDS011;6792;57.698;11.946;2023-06-05T07:52:49;13.95;;;6.80;;
13439;SDS011;6792;57.698;11.946;2023-06-05T07:55:18;12.58;;;6.83;;
13439;SDS011;6792;57.698;11.946;2023-06-05T07:57:47;12.60;;;6.75;;
13439;SDS011;6792;57.698;11.946;2023-06-05T08:00:19;12.75;;;6.92;;
13439;SDS011;6792;57.698;11.946;2023-06-05T08:02:52;15.18;;;7.08;;
13439;SDS011;6792;57.698;11.946;2023-06-05T08:05:21;11.88;;;6.87;;
13439;SDS011;6792;57.698;11.946;2023-06-05T08:07:50;11.10;;;6.50;;
13439;SDS011;6792;57.698;11.946;2023-06-05T08:10:19;13.03;;;7.58;;
13439;SDS011;6792;57.698;11.946;2023-06-05T08:12:48;15.32;;;7.45;;
13439;SDS011;6792;57.698;11.946;2023-06-05T08:15:18;13.45;;;6.92;;
13439;SDS011;6792;57.698;11.946;2023-06-05T08:17:47;18.98;;;7.58;;
13439;SDS011;6792;57.698;11.946;2023-06-05T08:20:17;12.13;;;6.47;;
13439;SDS011;6792;57.698;11.946;2023-06-05T08:22:46;14.30;;;7.05;;
13439;SDS011;6792;57.698;11.946;2023-06-05T08:25:18;20.45;;;8.18;;
13439;SDS011;6792;57.698;11.946;2023-06-05T08:27:48;13.43;;;7.78;;
13439;SDS011;6792;57.698;11.946;2023-06-05T08:30:17;16.40;;;7.78;;
13439;SDS011;6792;57.698;11.946;2023-06-05T08:32:46;13.98;;;7.78;;
13439;SDS011;6792;57.698;11.946;2023-06-05T08:35:15;13.40;;;7.60;;
13439;SDS011;6792;57.698;11.946;2023-06-05T08:37:45;12.18;;;7.12;;
13439;SDS011;6792;57.698;11.946;2023-06-05T08:40:14;14.03;;;6.95;;
13439;SDS011;6792;57.698;11.946;2023-06-05T08:42:45;17.87;;;6.58;;
13439;SDS011;6792;57.698;11.946;2023-06-05T08:45:14;10.93;;;6.33;;
13439;SDS011;6792;57.698;11.946;2023-06-05T08:47:47;11.88;;;6.83;;
13439;SDS011;6792;57.698;11.946;2023-06-05T08:50:17;13.28;;;7.15;;
13439;SDS011;6792;57.698;11.946;2023-06-05T08:52:47;11.63;;;6.80;;
13439;SDS011;6792;57.698;11.946;2023-06-05T08:55:18;9.45;;;6.60;;
13439;SDS011;6792;57.698;11.946;2023-06-05T08:57:47;11.90;;;6.92;;
13439;SDS011;6792;57.698;11.946;2023-06-05T09:00:17;12.35;;;6.55;;
13439;SDS011;6792;57.698;11.946;2023-06-05T09:02:47;11.10;;;6.37;;
13439;SDS011;6792;57.698;11.946;2023-06-05T09:05:16;9.88;;;6.42;;
13439;SDS011;6792;57.698;11.946;2023-06-05T09:07:46;9.00;;;6.15;;
13439;SDS011;6792;57.698;11.946;2023-06-05T09:10:21;13.65;;;6.80;;
13439;SDS011;6792;57.698;11.946;2023-06-05T09:12:53;11.75;;;6.40;;
13439;SDS011;6792;57.698;11.946;2023-06-05T09:15:24;15.23;;;7.62;;
13439;SDS011;6792;57.698;11.946;2023-06-05T09:18:05;13.55;;;7.20;;
13439;SDS011;6792;57.698;11.946;2023-06-05T09:20:35;10.08;;;6.80;;
13439;SDS011;6792;57.698;11.946;2023-06-05T09:23:21;8.98;;;6.70;;
13439;SDS011;6792;57.698;11.946;2023-06-05T09:25:53;11.95;;;6.05;;
13439;SDS011;6792;57.698;11.946;2023-06-05T09:28:24;14.23;;;6.42;;
13439;SDS011;6792;57.698;11.946;2023-06-05T09:30:54;9.33;;;6.85;;
13439;SDS011;6792;57.698;11.946;2023-06-05T09:33:24;10.15;;;6.15;;
13439;SDS011;6792;57.698;11.946;2023-06-05T09:36:04;7.35;;;6.15;;
13439;SDS011;6792;57.698;11.946;2023-06-05T09:38:35;5.75;;;5.20;;
13439;SDS011;6792;57.698;11.946;2023-06-05T09:41:05;7.45;;;4.20;;
13439;SDS011;6792;57.698;11.946;2023-06-05T09:43:35;6.08;;;4.30;;
13439;SDS011;6792;57.698;11.946;2023-06-05T09:46:09;8.33;;;4.37;;
13439;SDS011;6792;57.698;11.946;2023-06-05T09:48:39;5.28;;;3.80;;
13439;SDS011;6792;57.698;11.946;2023-06-05T09:51:11;4.37;;;3.67;;
13439;SDS011;6792;57.698;11.946;2023-06-05T09:53:45;7.58;;;4.00;;
13439;SDS011;6792;57.698;11.946;2023-06-05T09:56:17;4.72;;;3.80;;
13439;SDS011;6792;57.698;11.946;2023-06-05T09:58:49;5.28;;;4.10;;
13439;SDS011;6792;57.698;11.946;2023-06-05T10:01:19;4.22;;;3.30;;
13439;SDS011;6792;57.698;11.946;2023-06-05T10:03:52;6.70;;;3.80;;
13439;SDS011;6792;57.698;11.946;2023-06-05T10:06:24;7.08;;;4.33;;
13439;SDS011;6792;57.698;11.946;2023-06-05T10:08:55;4.78;;;3.75;;
13439;SDS011;6792;57.698;11.946;2023-06-05T10:11:26;5.72;;;3.87;;
13439;SDS011;6792;57.698;11.946;2023-06-05T10:13:56;6.22;;;4.20;;
13439;SDS011;6792;57.698;11.946;2023-06-05T10:16:26;5.00;;;3.90;;
13439;SDS011;6792;57.698;11.946;2023-06-05T10:18:56;8.10;;;4.20;;
13439;SDS011;6792;57.698;11.946;2023-06-05T10:21:26;7.03;;;4.33;;
13439;SDS011;6792;57.698;11.946;2023-06-05T10:23:57;5.25;;;3.92;;
13439;SDS011;6792;57.698;11.946;2023-06-05T10:26:33;6.03;;;3.60;;
13439;SDS011;6792;57.698;11.946;2023-06-05T10:29:20;6.15;;;4.37;;
13439;SDS011;6792;57.698;11.946;2023-06-05T10:31:57;5.78;;;4.37;;
13439;SDS011;6792;57.698;11.946;2023-06-05T10:34:34;6.25;;;4.15;;
13439;SDS011;6792;57.698;11.946;2023-06-05T10:40:17;7.00;;;4.12;;
13439;SDS011;6792;57.698;11.946;2023-06-05T10:42:48;5.50;;;3.85;;
13439;SDS011;6792;57.698;11.946;2023-06-05T10:45:29;5.17;;;4.40;;
13439;SDS011;6792;57.698;11.946;2023-06-05T10:47:57;7.17;;;3.80;;
13439;SDS011;6792;57.698;11.946;2023-06-05T10:50:27;7.00;;;4.05;;
13439;SDS011;6792;57.698;11.946;2023-06-05T10:52:58;7.22;;;4.25;;
13439;SDS011;6792;57.698;11.946;2023-06-05T10:55:27;5.45;;;4.33;;
13439;SDS011;6792;57.698;11.946;2023-06-05T10:58:09;4.92;;;4.10;;
13439;SDS011;6792;57.698;11.946;2023-06-05T11:03:55;5.90;;;4.35;;
13439;SDS011;6792;57.698;11.946;2023-06-05T11:06:25;8.60;;;4.00;;
13439;SDS011;6792;57.698;11.946;2023-06-05T11:09:10;7.60;;;4.10;;
13439;SDS011;6792;57.698;11.946;2023-06-05T11:11:59;8.00;;;4.78;;
13439;SDS011;6792;57.698;11.946;2023-06-05T11:14:43;6.87;;;4.58;;
13439;SDS011;6792;57.698;11.946;2023-06-05T11:17:28;8.75;;;4.33;;
13439;SDS011;6792;57.698;11.946;2023-06-05T11:19:59;6.15;;;4.10;;
13439;SDS011;6792;57.698;11.946;2023-06-05T11:22:31;5.65;;;4.40;;
13439;SDS011;6792;57.698;11.946;2023-06-05T11:28:06;6.45;;;4.10;;
13439;SDS011;6792;57.698;11.946;2023-06-05T11:30:39;7.80;;;3.92;;
13439;SDS011;6792;57.698;11.946;2023-06-05T11:33:10;6.05;;;3.65;;
13439;SDS011;6792;57.698;11.946;2023-06-05T11:35:41;6.20;;;4.10;;
13439;SDS011;6792;57.698;11.946;2023-06-05T11:38:18;6.85;;;4.37;;
13439;SDS011;6792;57.698;11.946;2023-06-05T11:40:48;6.03;;;3.95;;
13439;SDS011;6792;57.698;11.946;2023-06-05T11:43:17;6.50;;;3.92;;
13439;SDS011;6792;57.698;11.946;2023-06-05T11:45:50;4.62;;;3.65;;
13439;SDS011;6792;57.698;11.946;2023-06-05T11:48:20;7.87;;;3.90;;
13439;SDS011;6792;57.698;11.946;2023-06-05T11:50:55;6.50;;;3.27;;
13439;SDS011;6792;57.698;11.946;2023-06-05T11:53:26;6.15;;;3.00;;
13439;SDS011;6792;57.698;11.946;2023-06-05T11:55:56;9.90;;;3.98;;
13439;SDS011;6792;57.698;11.946;2023-06-05T11:58:34;4.55;;;3.40;;
13439;SDS011;6792;57.698;11.946;2023-06-05T12:01:05;4.25;;;3.30;;
13439;SDS011;6792;57.698;11.946;2023-06-05T12:03:38;5.67;;;3.67;;
13439;SDS011;6792;57.698;11.946;2023-06-05T12:06:07;6.08;;;3.98;;
13439;SDS011;6792;57.698;11.946;2023-06-05T12:08:38;4.20;;;3.15;;
13439;SDS011;6792;57.698;11.946;2023-06-05T12:11:21;5.37;;;3.40;;
13439;SDS011;6792;57.698;11.946;2023-06-05T12:13:52;5.90;;;3.40;;
13439;SDS011;6792;57.698;11.946;2023-06-05T12:16:30;5.83;;;3.30;;
13439;SDS011;6792;57.698;11.946;2023-06-05T12:19:00;4.83;;;3.33;;
13439;SDS011;6792;57.698;11.946;2023-06-05T12:21:30;4.40;;;3.00;;
13439;SDS011;6792;57.698;11.946;2023-06-05T12:24:03;6.40;;;3.12;;
13439;SDS011;6792;57.698;11.946;2023-06-05T12:29:52;3.17;;;2.80;;
13439;SDS011;6792;57.698;11.946;2023-06-05T12:32:22;8.45;;;3.40;;
13439;SDS011;6792;57.698;11.946;2023-06-05T12:34:53;5.12;;;3.17;;
13439;SDS011;6792;57.698;11.946;2023-06-05T12:37:24;7.92;;;3.35;;
13439;SDS011;6792;57.698;11.946;2023-06-05T12:39:56;4.50;;;3.30;;
13439;SDS011;6792;57.698;11.946;2023-06-05T12:42:25;4.17;;;2.98;;
13439;SDS011;6792;57.698;11.946;2023-06-05T12:44:55;7.58;;;2.92;;
13439;SDS011;6792;57.698;11.946;2023-06-05T12:47:24;4.47;;;2.87;;
13439;SDS011;6792;57.698;11.946;2023-06-05T12:49:56;6.25;;;2.83;;
13439;SDS011;6792;57.698;11.946;2023-06-05T12:52:26;7.80;;;3.10;;
13439;SDS011;6792;57.698;11.946;2023-06-05T12:54:55;5.83;;;2.85;;
13439;SDS011;6792;57.698;11.946;2023-06-05T12:57:25;4.83;;;2.62;;
13439;SDS011;6792;57.698;11.946;2023-06-05T12:59:54;6.45;;;2.65;;
13439;SDS011;6792;57.698;11.946;2023-06-05T13:02:23;4.78;;;2.58;;
13439;SDS011;6792;57.698;11.946;2023-06-05T13:04:54;3.42;;;2.70;;
13439;SDS011;6792;57.698;11.946;2023-06-05T13:07:23;4.55;;;2.90;;
13439;SDS011;6792;57.698;11.946;2023-06-05T13:09:53;8.18;;;2.85;;
13439;SDS011;6792;57.698;11.946;2023-06-05T13:12:22;3.55;;;2.67;;
13439;SDS011;6792;57.698;11.946;2023-06-05T13:14:52;6.05;;;2.50;;
13439;SDS011;6792;57.698;11.946;2023-06-05T13:17:21;5.35;;;2.30;;
13439;SDS011;6792;57.698;11.946;2023-06-05T13:19:50;8.38;;;2.52;;
13439;SDS011;6792;57.698;11.946;2023-06-05T13:22:20;4.33;;;2.70;;
13439;SDS011;6792;57.698;11.946;2023-06-05T13:24:49;3.67;;;2.27;;
13439;SDS011;6792;57.698;11.946;2023-06-05T13:27:18;4.70;;;2.83;;
13439;SDS011;6792;57.698;11.946;2023-06-05T13:29:48;6.83;;;2.95;;
13439;SDS011;6792;57.698;11.946;2023-06-05T13:32:17;11.30;;;3.15;;
13439;SDS011;6792;57.698;11.946;2023-06-05T13:34:46;3.70;;;2.62;;
13439;SDS011;6792;57.698;11.946;2023-06-05T13:37:16;5.15;;;2.72;;
13439;SDS011;6792;57.698;11.946;2023-06-05T13:39:45;5.20;;;2.40;;
13439;SDS011;6792;57.698;11.946;2023-06-05T13:42:14;6.50;;;2.50;;
13439;SDS011;6792;57.698;11.946;2023-06-05T13:44:46;3.33;;;2.30;;
13439;SDS011;6792;57.698;11.946;2023-06-05T13:47:16;3.60;;;2.20;;
13439;SDS011;6792;57.698;11.946;2023-06-05T13:49:45;5.08;;;1.90;;
13439;SDS011;6792;57.698;11.946;2023-06-05T13:52:14;3.62;;;2.00;;
13439;SDS011;6792;57.698;11.946;2023-06-05T13:54:44;5.15;;;2.47;;
13439;SDS011;6792;57.698;11.946;2023-06-05T13:57:13;3.00;;;2.10;;
13439;SDS011;6792;57.698;11.946;2023-06-05T13:59:43;3.50;;;2.15;;
13439;SDS011;6792;57.698;11.946;2023-06-05T14:02:12;6.78;;;2.83;;
13439;SDS011;6792;57.698;11.946;2023-06-05T14:04:43;6.08;;;2.40;;
13439;SDS011;6792;57.698;11.946;2023-06-05T14:07:13;6.22;;;2.25;;
13439;SDS011;6792;57.698;11.946;2023-06-05T14:09:45;3.35;;;2.02;;
13439;SDS011;6792;57.698;11.946;2023-06-05T14:12:14;5.33;;;2.35;;
13439;SDS011;6792;57.698;11.946;2023-06-05T14:14:49;3.08;;;2.58;;
13439;SDS011;6792;57.698;11.946;2023-06-05T14:17:18;5.22;;;2.27;;
13439;SDS011;6792;57.698;11.946;2023-06-05T14:19:47;4.87;;;2.45;;
13439;SDS011;6792;57.698;11.946;2023-06-05T14:22:17;4.03;;;2.72;;
13439;SDS011;6792;57.698;11.946;2023-06-05T14:24:46;5.30;;;2.67;;
13439;SDS011;6792;57.698;11.946;2023-06-05T14:27:18;6.22;;;2.85;;
13439;SDS011;6792;57.698;11.946;2023-06-05T14:29:48;2.83;;;2.42;;
13439;SDS011;6792;57.698;11.946;2023-06-05T14:32:17;5.60;;;2.55;;
13439;SDS011;6792;57.698;11.946;2023-06-05T14:34:46;3.40;;;2.55;;
13439;SDS011;6792;57.698;11.946;2023-06-05T14:37:15;4.15;;;2.55;;
13439;SDS011;6792;57.698;11.946;2023-06-05T14:39:44;9.80;;;2.80;;
13439;SDS011;6792;57.698;11.946;2023-06-05T14:42:17;3.08;;;2.27;;
13439;SDS011;6792;57.698;11.946;2023-06-05T14:44:46;4.28;;;2.00;;
13439;SDS011;6792;57.698;11.946;2023-06-05T14:47:15;2.40;;;1.85;;
13439;SDS011;6792;57.698;11.946;2023-06-05T14:49:44;4.62;;;2.33;;
13439;SDS011;6792;57.698;11.946;2023-06-05T14:52:14;4.22;;;2.33;;
13439;SDS011;6792;57.698;11.946;2023-06-05T14:54:45;5.97;;;2.77;;
13439;SDS011;6792;57.698;11.946;2023-06-05T14:57:14;5.17;;;2.22;;
13439;SDS011;6792;57.698;11.946;2023-06-05T14:59:44;3.08;;;2.20;;
13439;SDS011;6792;57.698;11.946;2023-06-05T15:02:13;4.28;;;2.30;;
13439;SDS011;6792;57.698;11.946;2023-06-05T15:04:47;3.10;;;2.10;;
13439;SDS011;6792;57.698;11.946;2023-06-05T15:07:18;2.35;;;2.10;;
13439;SDS011;6792;57.698;11.946;2023-06-05T15:09:47;5.70;;;2.20;;
13439;SDS011;6792;57.698;11.946;2023-06-05T15:12:17;2.75;;;1.80;;
13439;SDS011;6792;57.698;11.946;2023-06-05T15:14:46;4.87;;;1.80;;
13439;SDS011;6792;57.698;11.946;2023-06-05T15:17:16;6.37;;;1.77;;